Malaysia Virtual Airlines Airport Information Service

Brisbane Airport

ICAO: YBBN Country: Australia
Latitude: -27.3842 Longitude: 153.117
Latest Arrival : MH135 (WMKK-YBBN) Latest Departure : MH134 (YBBN-WMKK)


WX CaptureLIVE
Data provided by noaa.gov | Fetched at 20:33:37

METAR : YBBN 122000Z 21005KT 9999 FEW019 BKN100 17/17 Q1012

TAF : YBBN 122019Z 1221/1400 22007KT 9999 FEW020 FM130000 25014KT CAVOK FM130900 26008KT CAVOK


Runway Data for YBBN
Data provided by openaviationdata.com

Runway ID Mag Var Hdg Length Elevation Surface ILS Freq ILS Id ILS Slope
1 11 15° 11709 ft 13 ft Asphalt 109.5 IBA 3
14 11 134° 5785 ft 13 ft Asphalt -- -- --
19 11 195° 11709 ft 13 ft Asphalt 110.1 IBS 3
32 11 314° 5785 ft 13 ft Asphalt -- -- --

Brisbane Airport, Australia
Use only for reference purposes



Not for navigational purposes.